createdAt,value
2018-04-18T00:02:27.069Z,11.30
2018-04-18T00:04:54.658Z,11.30
2018-04-18T00:07:22.257Z,11.20
2018-04-18T00:09:49.853Z,11.20
2018-04-18T00:12:18.604Z,11.20
2018-04-18T00:14:46.168Z,11.20
2018-04-18T00:17:13.730Z,11.10
2018-04-18T00:19:41.574Z,11.10
2018-04-18T00:22:09.144Z,11.10
2018-04-18T00:24:36.824Z,11.10
2018-04-18T00:27:04.432Z,11.10
2018-04-18T00:29:32.387Z,11.00
2018-04-18T00:32:01.351Z,11.00
2018-04-18T00:34:28.951Z,11.00
2018-04-18T00:36:56.511Z,11.00
2018-04-18T00:39:24.189Z,10.90
2018-04-18T00:41:51.771Z,10.90
2018-04-18T00:44:19.835Z,10.90
2018-04-18T00:46:47.451Z,10.80
2018-04-18T00:49:15.778Z,10.80
2018-04-18T00:51:43.419Z,10.80
2018-04-18T00:54:11.125Z,10.80
2018-04-18T00:56:38.693Z,10.70
2018-04-18T00:59:07.065Z,10.70
2018-04-18T01:01:34.624Z,10.70
2018-04-18T01:04:02.179Z,10.70
2018-04-18T01:06:29.798Z,10.70
2018-04-18T01:08:57.522Z,10.60
2018-04-18T01:11:25.205Z,10.60
2018-04-18T01:13:53.584Z,10.60
2018-04-18T01:16:21.130Z,10.50
2018-04-18T01:18:49.522Z,10.50
2018-04-18T01:21:17.082Z,10.40
2018-04-18T01:23:44.645Z,10.40
2018-04-18T01:26:12.327Z,10.40
2018-04-18T01:28:40.309Z,10.40
2018-04-18T01:31:07.913Z,10.30
2018-04-18T01:33:36.273Z,10.30
2018-04-18T01:36:03.851Z,10.20
2018-04-18T01:38:32.223Z,10.20
2018-04-18T01:41:00.557Z,10.20
2018-04-18T01:43:28.151Z,10.10
2018-04-18T01:45:56.475Z,10.10
2018-04-18T01:48:24.062Z,10.10
2018-04-18T01:50:51.672Z,10.00
2018-04-18T01:53:19.238Z,10.00
2018-04-18T01:55:46.791Z,9.90
2018-04-18T01:58:14.392Z,9.90
2018-04-18T02:00:42.654Z,9.90
2018-04-18T02:03:10.229Z,9.80
2018-04-18T02:05:37.785Z,9.80
2018-04-18T02:08:05.348Z,9.70
2018-04-18T02:10:33.091Z,9.70
2018-04-18T02:13:00.657Z,9.70
2018-04-18T02:15:28.289Z,9.70
2018-04-18T02:17:55.895Z,9.60
2018-04-18T02:20:23.468Z,9.60
2018-04-18T02:22:51.039Z,9.60
2018-04-18T02:25:19.407Z,9.50
2018-04-18T02:27:46.968Z,9.50
2018-04-18T02:30:14.571Z,9.50
2018-04-18T02:32:42.162Z,9.40
2018-04-18T02:35:09.771Z,9.40
2018-04-18T02:37:37.326Z,9.40
2018-04-18T02:40:05.676Z,9.30
2018-04-18T02:42:33.255Z,9.30
2018-04-18T02:45:01.638Z,9.20
2018-04-18T02:47:29.981Z,9.20
2018-04-18T02:49:58.429Z,9.20
2018-04-18T02:52:26.047Z,9.20
2018-04-18T02:54:54.387Z,9.10
2018-04-18T02:57:22.350Z,9.10
2018-04-18T02:59:49.926Z,9.10
2018-04-18T03:02:17.495Z,9.10
2018-04-18T03:04:46.112Z,9.00
2018-04-18T03:07:14.271Z,9.00
2018-04-18T03:09:42.940Z,9.00
2018-04-18T03:12:10.514Z,8.90
2018-04-18T03:14:38.847Z,9.00
2018-04-18T03:17:06.516Z,8.90
2018-04-18T03:19:34.115Z,8.90
2018-04-18T03:22:02.506Z,8.90
2018-04-18T03:24:30.145Z,8.80
2018-04-18T03:26:58.500Z,8.80
2018-04-18T03:29:26.059Z,8.80
2018-04-18T03:31:53.639Z,8.70
2018-04-18T03:34:22.013Z,8.70
2018-04-18T03:36:49.577Z,8.70
2018-04-18T03:39:17.138Z,8.60
2018-04-18T03:41:45.712Z,8.60
2018-04-18T03:44:13.421Z,8.60
2018-04-18T03:46:40.975Z,8.60
2018-04-18T03:49:08.760Z,8.50
2018-04-18T03:51:36.387Z,8.60
2018-04-18T03:54:04.703Z,8.50
2018-04-18T03:56:32.252Z,8.50
2018-04-18T03:58:59.887Z,8.50
2018-04-18T04:01:27.448Z,8.40
2018-04-18T04:03:55.007Z,8.50
2018-04-18T04:06:22.595Z,8.50
2018-04-18T04:08:50.172Z,8.40
2018-04-18T04:11:17.756Z,8.40
2018-04-18T04:13:46.296Z,8.40
2018-04-18T04:16:25.831Z,8.40
2018-04-18T04:19:05.256Z,8.40
2018-04-18T04:21:44.671Z,8.40
2018-04-18T04:24:24.879Z,8.40
2018-04-18T04:26:52.435Z,8.40
2018-04-18T04:29:20.885Z,8.40
2018-04-18T04:31:48.638Z,8.40
2018-04-18T04:34:16.219Z,8.40
2018-04-18T04:36:43.808Z,8.50
2018-04-18T04:39:11.391Z,8.60
2018-04-18T04:41:58.157Z,8.60
2018-04-18T04:44:31.507Z,8.70
2018-04-18T04:46:59.139Z,8.80
2018-04-18T04:49:26.831Z,8.80
2018-04-18T04:51:54.395Z,8.90
2018-04-18T04:54:21.971Z,8.90
2018-04-18T04:56:49.530Z,9.00
2018-04-18T04:59:17.100Z,9.00
2018-04-18T05:01:44.698Z,9.10
2018-04-18T05:04:13.011Z,9.20
2018-04-18T05:06:40.611Z,9.20
2018-04-18T05:09:08.951Z,9.50
2018-04-18T05:11:36.559Z,9.50
2018-04-18T05:14:04.977Z,9.80
2018-04-18T05:16:32.574Z,9.80
2018-04-18T05:19:01.720Z,10.10
2018-04-18T05:21:29.503Z,10.00
2018-04-18T05:23:57.078Z,10.30
2018-04-18T05:26:24.689Z,10.40
2018-04-18T05:28:53.020Z,10.80
2018-04-18T05:31:20.578Z,10.80
2018-04-18T05:33:48.173Z,10.90
2018-04-18T05:36:16.511Z,11.30
2018-04-18T05:38:44.074Z,11.30
2018-04-18T05:41:11.758Z,11.50
2018-04-18T05:43:39.318Z,11.70
2018-04-18T05:46:06.905Z,11.90
2018-04-18T05:48:34.505Z,12.00
2018-04-18T05:51:03.002Z,12.20
2018-04-18T05:53:30.648Z,12.40
2018-04-18T05:55:58.230Z,12.50
2018-04-18T05:58:25.844Z,12.70
2018-04-18T06:00:53.429Z,12.90
2018-04-18T06:03:21.001Z,13.10
2018-04-18T06:05:49.159Z,13.30
2018-04-18T06:08:16.724Z,13.50
2018-04-18T06:10:44.285Z,13.60
2018-04-18T06:13:12.124Z,13.80
2018-04-18T06:15:39.772Z,14.10
2018-04-18T06:18:07.427Z,14.30
2018-04-18T06:20:35.940Z,14.60
2018-04-18T06:23:03.524Z,14.70
2018-04-18T06:25:31.143Z,14.80
2018-04-18T06:27:58.770Z,15.00
2018-04-18T06:30:27.292Z,15.20
2018-04-18T06:32:54.884Z,15.20
2018-04-18T06:35:22.484Z,15.50
2018-04-18T06:37:50.073Z,15.70
2018-04-18T06:40:17.666Z,15.70
2018-04-18T06:42:45.657Z,16.10
2018-04-18T06:45:14.041Z,16.60
2018-04-18T06:47:42.417Z,16.60
2018-04-18T06:50:10.730Z,16.80
2018-04-18T06:52:38.317Z,16.70
2018-04-18T06:55:05.892Z,16.80
2018-04-18T06:57:33.514Z,17.00
2018-04-18T07:00:01.088Z,17.20
2018-04-18T07:02:28.651Z,17.40
2018-04-18T07:04:56.495Z,17.60
2018-04-18T07:07:25.062Z,18.00
2018-04-18T07:09:52.850Z,18.30
2018-04-18T07:12:20.439Z,18.40
2018-04-18T07:14:48.001Z,18.70
2018-04-18T07:17:15.677Z,18.80
2018-04-18T07:19:44.097Z,19.40
2018-04-18T07:22:11.668Z,19.40
2018-04-18T07:24:39.264Z,19.40
2018-04-18T07:27:06.827Z,19.60
2018-04-18T07:29:36.122Z,20.00
2018-04-18T07:32:03.700Z,20.00
2018-04-18T07:34:32.100Z,20.50
2018-04-18T07:37:00.344Z,20.40
2018-04-18T07:39:27.974Z,20.70
2018-04-18T07:41:55.591Z,20.60
2018-04-18T07:44:24.810Z,20.80
2018-04-18T07:46:52.394Z,20.80
2018-04-18T07:49:19.959Z,21.10
2018-04-18T07:51:47.586Z,21.40
2018-04-18T07:54:15.145Z,21.60
2018-04-18T07:56:42.701Z,21.80
2018-04-18T07:59:10.320Z,21.90
2018-04-18T08:01:37.924Z,21.90
2018-04-18T08:04:05.487Z,21.80
2018-04-18T08:06:33.252Z,21.70
2018-04-18T08:09:00.903Z,21.70
2018-04-18T08:11:28.466Z,21.80
2018-04-18T08:13:56.055Z,21.90
2018-04-18T08:16:23.876Z,21.90
2018-04-18T08:18:51.441Z,21.80
2018-04-18T08:21:19.051Z,21.70
2018-04-18T08:23:46.631Z,21.50
2018-04-18T08:26:14.986Z,21.80
2018-04-18T08:28:42.576Z,21.80
2018-04-18T08:31:10.959Z,22.30
2018-04-18T08:33:39.288Z,22.20
2018-04-18T08:36:06.863Z,22.20
2018-04-18T08:38:34.468Z,22.30
2018-04-18T08:41:02.035Z,22.30
2018-04-18T08:43:29.612Z,22.20
2018-04-18T08:45:57.196Z,22.30
2018-04-18T08:48:24.751Z,22.60
2018-04-18T08:50:52.365Z,22.70
2018-04-18T08:53:20.046Z,22.70
2018-04-18T08:55:47.588Z,22.60
2018-04-18T08:58:15.179Z,22.90
2018-04-18T09:00:42.737Z,23.00
2018-04-18T09:03:10.334Z,23.40
2018-04-18T09:05:38.664Z,23.70
2018-04-18T09:08:06.317Z,23.70
2018-04-18T09:10:33.879Z,23.50
2018-04-18T09:13:01.658Z,23.70
2018-04-18T09:15:29.248Z,23.80
2018-04-18T09:17:56.800Z,23.70
2018-04-18T09:20:25.159Z,24.00
2018-04-18T09:22:52.728Z,24.00
2018-04-18T09:25:20.276Z,23.90
2018-04-18T09:27:47.851Z,23.90
2018-04-18T09:30:16.935Z,24.10
2018-04-18T09:32:44.496Z,24.10
2018-04-18T09:35:12.225Z,24.10
2018-04-18T09:37:39.780Z,24.20
2018-04-18T09:40:07.395Z,24.20
2018-04-18T09:42:35.320Z,24.20
2018-04-18T09:45:02.912Z,24.30
2018-04-18T09:47:30.513Z,24.10
2018-04-18T09:49:58.059Z,24.20
2018-04-18T09:52:26.378Z,24.80
2018-04-18T09:54:53.976Z,24.80
2018-04-18T09:57:21.568Z,25.10
2018-04-18T09:59:49.180Z,25.00
2018-04-18T10:02:33.575Z,24.70
2018-04-18T10:05:07.833Z,25.10
2018-04-18T10:07:35.388Z,25.00
2018-04-18T10:10:02.987Z,25.10
2018-04-18T10:12:30.569Z,25.10
2018-04-18T10:14:58.138Z,25.30
2018-04-18T10:17:25.728Z,25.40
2018-04-18T10:19:53.271Z,25.50
2018-04-18T10:22:20.818Z,25.50
2018-04-18T10:24:48.422Z,25.40
2018-04-18T10:27:16.047Z,25.30
2018-04-18T10:29:43.608Z,25.30
2018-04-18T10:32:11.185Z,25.20
2018-04-18T10:34:38.761Z,25.30
2018-04-18T10:37:06.395Z,25.40
2018-04-18T10:39:33.956Z,25.30
2018-04-18T10:42:01.508Z,25.50
2018-04-18T10:44:29.108Z,25.60
2018-04-18T10:46:56.677Z,25.70
2018-04-18T10:49:24.775Z,25.90
2018-04-18T10:51:52.367Z,26.00
2018-04-18T10:54:19.954Z,25.90
2018-04-18T10:56:47.593Z,26.00
2018-04-18T10:59:16.034Z,25.90
2018-04-18T11:01:44.414Z,24.90
2018-04-18T11:04:12.002Z,24.90
2018-04-18T11:06:39.620Z,25.10
2018-04-18T11:09:08.022Z,25.30
2018-04-18T11:11:35.626Z,25.30
2018-04-18T11:14:03.181Z,25.20
2018-04-18T11:16:30.768Z,25.40
2018-04-18T11:18:59.081Z,25.40
2018-04-18T11:21:26.669Z,25.40
2018-04-18T11:23:54.274Z,25.40
2018-04-18T11:26:23.039Z,25.20
2018-04-18T11:28:51.441Z,25.30
2018-04-18T11:31:19.883Z,25.30
2018-04-18T11:33:47.484Z,25.30
2018-04-18T11:36:15.806Z,25.20
2018-04-18T11:38:43.386Z,25.30
2018-04-18T11:41:11.707Z,25.00
2018-04-18T11:43:39.329Z,25.00
2018-04-18T11:46:06.897Z,25.20
2018-04-18T11:48:34.447Z,25.30
2018-04-18T11:51:02.044Z,25.30
2018-04-18T11:53:29.611Z,25.60
2018-04-18T11:55:57.183Z,25.70
2018-04-18T11:58:24.850Z,25.60
2018-04-18T12:00:52.453Z,25.70
2018-04-18T12:03:20.003Z,25.50
2018-04-18T12:05:47.566Z,25.30
2018-04-18T12:08:15.167Z,25.10
2018-04-18T12:10:42.752Z,25.00
2018-04-18T12:13:10.351Z,25.30
2018-04-18T12:15:37.919Z,25.40
2018-04-18T12:18:06.246Z,25.60
2018-04-18T12:20:33.860Z,25.50
2018-04-18T12:23:02.176Z,25.20
2018-04-18T12:25:29.800Z,25.10
2018-04-18T12:27:58.420Z,25.40
2018-04-18T12:30:25.975Z,25.40
2018-04-18T12:32:54.526Z,25.40
2018-04-18T12:35:22.899Z,25.50
2018-04-18T12:37:51.228Z,25.60
2018-04-18T12:40:18.787Z,25.60
2018-04-18T12:42:46.380Z,25.50
2018-04-18T12:45:14.158Z,25.60
2018-04-18T12:47:43.019Z,25.20
2018-04-18T12:50:11.144Z,25.20
2018-04-18T12:52:38.781Z,25.00
2018-04-18T12:55:06.453Z,24.90
2018-04-18T12:57:34.026Z,25.10
2018-04-18T13:00:01.595Z,25.30
2018-04-18T13:02:29.180Z,25.30
2018-04-18T13:04:56.739Z,25.10
2018-04-18T13:07:24.359Z,24.90
2018-04-18T13:09:51.906Z,25.00
2018-04-18T13:12:20.316Z,24.90
2018-04-18T13:14:47.946Z,24.90
2018-04-18T13:17:16.273Z,25.10
2018-04-18T13:19:43.907Z,25.10
2018-04-18T13:22:11.509Z,25.10
2018-04-18T13:24:39.076Z,25.00
2018-04-18T13:27:06.648Z,25.20
2018-04-18T13:29:34.960Z,24.90
2018-04-18T13:32:02.547Z,24.90
2018-04-18T13:34:30.181Z,24.70
2018-04-18T13:36:57.773Z,24.70
2018-04-18T13:39:25.345Z,24.90
2018-04-18T13:41:52.907Z,25.00
2018-04-18T13:44:20.496Z,25.00
2018-04-18T13:46:48.078Z,25.10
2018-04-18T13:49:15.621Z,25.10
2018-04-18T13:51:43.197Z,25.20
2018-04-18T13:54:11.632Z,25.30
2018-04-18T13:56:40.159Z,25.30
2018-04-18T13:59:07.756Z,25.30
2018-04-18T14:01:35.340Z,25.40
2018-04-18T14:04:03.721Z,25.00
2018-04-18T14:06:32.096Z,24.80
2018-04-18T14:09:00.556Z,25.00
2018-04-18T14:11:28.157Z,24.90
2018-04-18T14:13:55.727Z,24.70
2018-04-18T14:16:23.297Z,24.50
2018-04-18T14:18:50.877Z,24.70
2018-04-18T14:21:18.460Z,24.60
2018-04-18T14:23:46.040Z,24.70
2018-04-18T14:26:14.431Z,25.00
2018-04-18T14:28:42.004Z,24.90
2018-04-18T14:31:09.758Z,24.80
2018-04-18T14:33:37.435Z,24.80
2018-04-18T14:36:05.003Z,24.80
2018-04-18T14:38:32.565Z,24.90
2018-04-18T14:41:00.200Z,25.00
2018-04-18T14:43:27.963Z,24.90
2018-04-18T14:45:56.519Z,24.80
2018-04-18T14:48:24.861Z,24.60
2018-04-18T14:50:52.424Z,24.60
2018-04-18T14:53:20.216Z,24.60
2018-04-18T14:55:48.546Z,24.30
2018-04-18T14:58:16.097Z,24.30
2018-04-18T15:00:43.694Z,24.40
2018-04-18T15:03:11.317Z,24.20
2018-04-18T15:05:38.895Z,24.00
2018-04-18T15:08:06.492Z,24.10
2018-04-18T15:10:34.839Z,24.00
2018-04-18T15:13:03.186Z,24.00
2018-04-18T15:15:30.773Z,24.00
2018-04-18T15:17:58.338Z,24.00
2018-04-18T15:20:25.974Z,24.00
2018-04-18T15:22:53.536Z,24.00
2018-04-18T15:25:21.123Z,23.90
2018-04-18T15:27:49.523Z,23.90
2018-04-18T15:30:17.857Z,23.90
2018-04-18T15:32:45.499Z,23.90
2018-04-18T15:35:13.775Z,23.90
2018-04-18T15:37:41.445Z,23.90
2018-04-18T15:40:09.141Z,23.90
2018-04-18T15:42:36.695Z,23.70
2018-04-18T15:45:04.238Z,23.60
2018-04-18T15:47:31.848Z,23.50
2018-04-18T15:50:00.182Z,23.40
2018-04-18T15:52:28.639Z,23.50
2018-04-18T15:54:56.211Z,23.40
2018-04-18T15:57:23.756Z,23.50
2018-04-18T15:59:51.620Z,23.40
2018-04-18T16:02:19.254Z,23.40
2018-04-18T16:04:46.818Z,23.20
2018-04-18T16:07:14.391Z,23.00
2018-04-18T16:09:42.877Z,23.00
2018-04-18T16:12:10.461Z,22.90
2018-04-18T16:14:38.084Z,22.80
2018-04-18T16:17:05.948Z,22.70
2018-04-18T16:19:33.550Z,22.60
2018-04-18T16:22:01.166Z,22.60
2018-04-18T16:24:28.737Z,22.50
2018-04-18T16:26:56.614Z,22.50
2018-04-18T16:29:36.173Z,22.40
2018-04-18T16:32:03.734Z,22.20
2018-04-18T16:34:31.274Z,22.10
2018-04-18T16:36:58.874Z,22.00
2018-04-18T16:39:27.987Z,21.90
2018-04-18T16:41:56.325Z,21.80
2018-04-18T16:44:23.886Z,21.80
2018-04-18T16:46:51.665Z,21.70
2018-04-18T16:49:19.987Z,21.60
2018-04-18T16:51:47.547Z,21.60
2018-04-18T16:54:15.142Z,21.50
2018-04-18T16:56:42.778Z,21.30
2018-04-18T16:59:10.333Z,21.30
2018-04-18T17:01:38.825Z,21.20
2018-04-18T17:04:06.427Z,21.20
2018-04-18T17:06:34.015Z,21.10
2018-04-18T17:09:02.327Z,20.90
2018-04-18T17:11:29.976Z,20.90
2018-04-18T17:13:57.541Z,20.90
2018-04-18T17:16:25.093Z,20.70
2018-04-18T17:18:53.479Z,20.60
2018-04-18T17:21:21.282Z,20.60
2018-04-18T17:23:49.712Z,20.30
2018-04-18T17:26:17.320Z,20.30
2018-04-18T17:28:46.410Z,20.10
2018-04-18T17:31:14.132Z,20.10
2018-04-18T17:33:41.740Z,20.00
2018-04-18T17:36:10.082Z,19.80
2018-04-18T17:38:37.643Z,19.80
2018-04-18T17:41:05.242Z,19.70
2018-04-18T17:43:32.855Z,19.60
2018-04-18T17:46:00.490Z,19.50
2018-04-18T17:48:28.059Z,19.40
2018-04-18T17:50:55.699Z,19.20
2018-04-18T17:53:23.297Z,19.10
2018-04-18T17:55:51.299Z,19.10
2018-04-18T17:58:18.864Z,18.90
2018-04-18T18:00:46.418Z,18.80
2018-04-18T18:03:14.767Z,18.70
2018-04-18T18:05:42.346Z,18.70
2018-04-18T18:08:09.897Z,18.70
2018-04-18T18:10:37.467Z,18.60
2018-04-18T18:13:05.239Z,18.60
2018-04-18T18:15:32.895Z,18.50
2018-04-18T18:18:00.457Z,18.50
2018-04-18T18:20:28.007Z,18.40
2018-04-18T18:22:55.578Z,18.40
2018-04-18T18:25:23.165Z,18.30
2018-04-18T18:27:51.550Z,18.20
2018-04-18T18:30:19.872Z,18.10
2018-04-18T18:32:47.435Z,18.10
2018-04-18T18:35:15.002Z,18.00
2018-04-18T18:37:42.582Z,17.90
2018-04-18T18:40:10.215Z,17.90
2018-04-18T18:42:37.802Z,17.70
2018-04-18T18:45:05.353Z,17.60
2018-04-18T18:47:32.954Z,17.60
2018-04-18T18:50:00.521Z,17.50
2018-04-18T18:52:28.189Z,17.40
2018-04-18T18:54:55.755Z,17.30
2018-04-18T18:57:24.105Z,17.20
2018-04-18T18:59:51.694Z,17.20
2018-04-18T19:02:19.269Z,17.10
2018-04-18T19:04:46.854Z,17.10
2018-04-18T19:07:14.479Z,17.00
2018-04-18T19:09:42.112Z,16.90
2018-04-18T19:12:09.755Z,16.80
2018-04-18T19:14:37.305Z,16.80
2018-04-18T19:17:04.874Z,16.70
2018-04-18T19:19:32.465Z,16.70
2018-04-18T19:22:00.818Z,16.60
2018-04-18T19:24:28.436Z,16.60
2018-04-18T19:26:56.008Z,16.60
2018-04-18T19:29:23.569Z,16.50
2018-04-18T19:31:51.180Z,16.50
2018-04-18T19:34:18.808Z,16.50
2018-04-18T19:36:46.389Z,16.50
2018-04-18T19:39:14.098Z,16.50
2018-04-18T19:41:41.662Z,16.50
2018-04-18T19:44:09.218Z,16.40
2018-04-18T19:46:36.810Z,16.40
2018-04-18T19:49:04.369Z,16.30
2018-04-18T19:51:31.956Z,16.30
2018-04-18T19:53:59.546Z,16.30
2018-04-18T19:56:27.160Z,16.10
2018-04-18T19:58:54.772Z,16.00
2018-04-18T20:01:23.117Z,15.80
2018-04-18T20:03:50.880Z,15.80
2018-04-18T20:06:18.456Z,15.70
2018-04-18T20:08:46.068Z,15.70
2018-04-18T20:11:13.641Z,15.60
2018-04-18T20:13:41.206Z,15.50
2018-04-18T20:16:08.800Z,15.50
2018-04-18T20:18:37.194Z,15.30
2018-04-18T20:21:04.768Z,15.30
2018-04-18T20:23:32.344Z,15.20
2018-04-18T20:25:59.935Z,15.20
2018-04-18T20:28:27.533Z,15.20
2018-04-18T20:30:55.055Z,15.10
2018-04-18T20:36:05.537Z,14.70
2018-04-18T20:38:33.213Z,14.50
2018-04-18T20:41:01.326Z,14.40
2018-04-18T20:43:28.920Z,14.30
2018-04-18T20:45:56.505Z,14.40
2018-04-18T20:48:24.066Z,14.40
2018-04-18T20:50:51.665Z,14.30
2018-04-18T20:53:19.269Z,14.30
2018-04-18T20:55:46.817Z,14.30
2018-04-18T20:58:14.420Z,14.20
2018-04-18T21:00:41.997Z,14.20
2018-04-18T21:03:10.320Z,14.10
2018-04-18T21:05:37.911Z,14.00
2018-04-18T21:08:05.483Z,14.00
2018-04-18T21:10:33.037Z,14.00
2018-04-18T21:13:00.649Z,13.90
2018-04-18T21:15:28.252Z,13.90
2018-04-18T21:17:55.872Z,13.80
2018-04-18T21:20:23.435Z,13.80
2018-04-18T21:22:51.063Z,13.80
2018-04-18T21:25:18.618Z,13.70
2018-04-18T21:27:46.975Z,13.60
2018-04-18T21:30:14.602Z,13.60
2018-04-18T21:32:42.171Z,13.50
2018-04-18T21:35:09.746Z,13.40
2018-04-18T21:37:37.511Z,13.40
2018-04-18T21:40:05.054Z,13.30
2018-04-18T21:42:33.333Z,13.30
2018-04-18T21:45:00.908Z,13.20
2018-04-18T21:47:28.459Z,13.10
2018-04-18T21:49:56.014Z,13.00
2018-04-18T21:52:23.591Z,13.10
2018-04-18T21:54:51.312Z,13.00
2018-04-18T21:57:18.915Z,12.90
2018-04-18T21:59:46.475Z,12.90
2018-04-18T22:02:14.047Z,12.90
2018-04-18T22:04:41.675Z,12.80
2018-04-18T22:07:09.294Z,12.70
2018-04-18T22:09:37.997Z,12.60
2018-04-18T22:12:05.598Z,12.60
2018-04-18T22:14:33.185Z,12.50
2018-04-18T22:17:00.805Z,12.40
2018-04-18T22:19:28.431Z,12.30
2018-04-18T22:21:56.028Z,12.30
2018-04-18T22:24:23.584Z,12.30
2018-04-18T22:26:51.202Z,12.30
2018-04-18T22:29:19.538Z,12.30
2018-04-18T22:31:47.158Z,12.20
2018-04-18T22:34:14.719Z,12.20
2018-04-18T22:36:42.279Z,12.20
2018-04-18T22:39:09.876Z,12.20
2018-04-18T22:41:37.466Z,12.10
2018-04-18T22:44:05.089Z,12.10
2018-04-18T22:46:33.278Z,12.10
2018-04-18T22:49:01.448Z,12.00
2018-04-18T22:51:29.068Z,11.90
2018-04-18T22:53:56.658Z,11.80
2018-04-18T22:56:25.042Z,11.70
2018-04-18T22:58:52.602Z,11.70
2018-04-18T23:01:20.175Z,11.70
2018-04-18T23:03:48.697Z,11.70
2018-04-18T23:06:17.079Z,11.70
2018-04-18T23:08:45.394Z,11.60
2018-04-18T23:11:13.002Z,11.60
2018-04-18T23:13:40.589Z,11.60
2018-04-18T23:16:08.964Z,11.50
2018-04-18T23:18:38.211Z,11.50
2018-04-18T23:21:05.767Z,11.40
2018-04-18T23:23:33.359Z,11.50
2018-04-18T23:26:00.924Z,11.40
2018-04-18T23:28:28.488Z,11.40
2018-04-18T23:30:56.091Z,11.40
2018-04-18T23:33:23.668Z,11.30
2018-04-18T23:35:51.236Z,11.30
2018-04-18T23:38:19.657Z,11.10
2018-04-18T23:40:47.215Z,11.10
2018-04-18T23:43:14.847Z,11.10
2018-04-18T23:45:42.406Z,11.00
2018-04-18T23:48:09.961Z,11.00
2018-04-18T23:50:37.567Z,10.90
2018-04-18T23:53:05.153Z,10.90
2018-04-18T23:55:32.754Z,10.80
2018-04-18T23:58:00.340Z,10.80
